Terminal Aerodrome Forecast
Issued by NWS

Home | Current Version | Previous Version | Text Only | Print | Product List | Glossary On
Versions: 1 2 3 4 5 6 7 8 9 10 11 12 13 14 15 16 17 18 19 20 21
495
FTUS42 KFFC 130709 AAA
TAFFTY
TAF AMD
KFTY 130709Z 1307/1406 32012G20KT P6SM SKC
      TEMPO 1307/1309 BKN030
     FM131600 33009KT P6SM SKC
     FM140200 34005KT P6SM FEW200=

USA.gov is the U.S. government's official web portal to all federal, state and local government web resources and services.